PWSweather.com
Personal Weather Stations
Station Observations
MENWDWX1
Menstrie, ScotlandGB

MenstrieScotlandGB

Lat: 56.148322, Lon: -3.85483

Elevation: 62

Station Type: Davis Vantage Pro 2

Latest ConditionsUpdated 8:50:01 PM GMT Wednesday, Apr 24, 2019
Currently Today's Max Today's Min Today's Average
Temperature 49.8°F9.9°C 60.3°F15.7°C 44.2°F6.8°C 51.5°F10.8°C
Dew Point 43.2°F6.2°C 48.4°F9.1°C 37.8°F3.2°C 43.5°F6.4°C
Winds 4.6 mph W7.4 kmh W 18.4 mph -29.6 kmh - - 8.7 mph 14.0 kmh
Wind Gusts 8.1 mph13.0 kmh 28.8 mph46.3 kmh - -
Humidity 78% 79% 63% 74%
Pressure 29.30 in992.2 mb 29.50 in999.0 mb 29.30 in992.2 mb -
Hour Temp Dew Point Humidity Winds Wind Gusts Pressure Precip Precip Rate Daily Precip Total
08:50 PM 49.8°F9.9°C 43.2°F6.2°C 78% 4.6 mph W7.4 kmh W 8.1 mph13.0 kmh 29.30 in992.2 mb - 0.00 in0.0 mm 0.00 in0.0 mm
08:45 PM 49.8°F9.9°C 43.2°F6.2°C 78% 3.5 mph WSW5.6 kmh WSW 6.9 mph11.1 kmh 29.31 in992.6 mb - 0.00 in0.0 mm 0.00 in0.0 mm
08:40 PM 49.7°F9.8°C 43.1°F6.2°C 78% 4.6 mph SW7.4 kmh SW 4.6 mph7.4 kmh 29.31 in992.6 mb - 0.00 in0.0 mm 0.00 in0.0 mm
08:35 PM 49.6°F9.8°C 43.4°F6.3°C 79% 5.8 mph NW9.3 kmh NW 8.1 mph13.0 kmh 29.31 in992.6 mb - 0.00 in0.0 mm 0.00 in0.0 mm
08:30 PM 49.6°F9.8°C 43.4°F6.3°C 79% 3.5 mph N5.6 kmh N 4.6 mph7.4 kmh 29.32 in992.9 mb - 0.00 in0.0 mm 0.00 in0.0 mm
08:25 PM 49.6°F9.8°C 43.4°F6.3°C 79% 2.3 mph E3.7 kmh E 3.5 mph5.6 kmh 29.32 in992.9 mb - 0.00 in0.0 mm 0.00 in0.0 mm
08:20 PM 49.6°F9.8°C 43.0°F6.1°C 78% 5.8 mph E9.3 kmh E 9.2 mph14.8 kmh 29.32 in992.9 mb - 0.00 in0.0 mm 0.00 in0.0 mm
08:15 PM 49.7°F9.8°C 43.1°F6.2°C 78% Calm Calm 3.5 mph5.6 kmh 29.31 in992.6 mb - 0.00 in0.0 mm 0.00 in0.0 mm
08:10 PM 49.9°F9.9°C 43.3°F6.3°C 78% 1.2 mph ENE1.9 kmh ENE 3.5 mph5.6 kmh 29.30 in992.2 mb - 0.00 in0.0 mm 0.00 in0.0 mm
08:05 PM 50.0°F10.0°C 43.4°F6.3°C 78% 5.8 mph E9.3 kmh E 8.1 mph13.0 kmh 29.30 in992.2 mb - 0.00 in0.0 mm 0.00 in0.0 mm
08:00 PM 50.1°F10.1°C 43.5°F6.4°C 78% 6.9 mph E11.1 kmh E 9.2 mph14.8 kmh 29.32 in992.9 mb - 0.00 in0.0 mm 0.00 in0.0 mm
07:55 PM 50.1°F10.1°C 43.5°F6.4°C 78% 4.6 mph ESE7.4 kmh ESE 11.5 mph18.5 kmh 29.32 in992.9 mb - 0.00 in0.0 mm 0.00 in0.0 mm
07:50 PM 50.3°F10.2°C 43.7°F6.5°C 78% 4.6 mph SE7.4 kmh SE 6.9 mph11.1 kmh 29.32 in992.9 mb - 0.00 in0.0 mm 0.00 in0.0 mm
07:45 PM 50.4°F10.2°C 43.8°F6.6°C 78% 4.6 mph SE7.4 kmh SE 8.1 mph13.0 kmh 29.32 in992.9 mb - 0.00 in0.0 mm 0.00 in0.0 mm
07:40 PM 50.4°F10.2°C 43.8°F6.6°C 78% Calm Calm -- 29.32 in992.9 mb - 0.00 in0.0 mm 0.00 in0.0 mm
07:35 PM 50.4°F10.2°C 43.8°F6.6°C 78% 2.3 mph SE3.7 kmh SE 4.6 mph7.4 kmh 29.32 in992.9 mb - 0.00 in0.0 mm 0.00 in0.0 mm
07:30 PM 50.5°F10.3°C 43.9°F6.6°C 78% 4.6 mph E7.4 kmh E 11.5 mph18.5 kmh 29.32 in992.9 mb - 0.00 in0.0 mm 0.00 in0.0 mm
07:25 PM 50.8°F10.4°C 43.8°F6.6°C 77% 6.9 mph E11.1 kmh E 11.5 mph18.5 kmh 29.32 in992.9 mb - 0.00 in0.0 mm 0.00 in0.0 mm
07:20 PM 51.0°F10.6°C 44.0°F6.7°C 77% 4.6 mph ESE7.4 kmh ESE 9.2 mph14.8 kmh 29.32 in992.9 mb - 0.00 in0.0 mm 0.00 in0.0 mm
07:15 PM 51.2°F10.7°C 43.9°F6.6°C 76% 3.5 mph SE5.6 kmh SE 10.4 mph16.7 kmh 29.32 in992.9 mb - 0.00 in0.0 mm 0.00 in0.0 mm
07:10 PM 51.2°F10.7°C 43.9°F6.6°C 76% 10.4 mph SE16.7 kmh SE 12.7 mph20.4 kmh 29.32 in992.9 mb - 0.00 in0.0 mm 0.00 in0.0 mm
07:05 PM 51.4°F10.8°C 44.1°F6.7°C 76% 6.9 mph E11.1 kmh E 12.7 mph20.4 kmh 29.32 in992.9 mb - 0.00 in0.0 mm 0.00 in0.0 mm
07:00 PM 51.4°F10.8°C 44.1°F6.7°C 76% 11.5 mph ESE18.5 kmh ESE 16.1 mph25.9 kmh 29.32 in992.9 mb - 0.00 in0.0 mm 0.00 in0.0 mm
06:55 PM 51.5°F10.8°C 44.2°F6.8°C 76% 6.9 mph ESE11.1 kmh ESE 15.0 mph24.1 kmh 29.32 in992.9 mb - 0.00 in0.0 mm 0.00 in0.0 mm
06:50 PM 51.5°F10.8°C 44.2°F6.8°C 76% 10.4 mph E16.7 kmh E 15.0 mph24.1 kmh 29.32 in992.9 mb - 0.00 in0.0 mm 0.00 in0.0 mm
06:45 PM 51.6°F10.9°C 44.6°F7.0°C 77% 8.1 mph E13.0 kmh E 11.5 mph18.5 kmh 29.33 in993.2 mb - 0.00 in0.0 mm 0.00 in0.0 mm
06:40 PM 51.8°F11.0°C 44.5°F6.9°C 76% 4.6 mph SE7.4 kmh SE 8.1 mph13.0 kmh 29.32 in992.9 mb - 0.00 in0.0 mm 0.00 in0.0 mm
06:35 PM 52.1°F11.2°C 44.8°F7.1°C 76% 8.1 mph SE13.0 kmh SE 10.4 mph16.7 kmh 29.32 in992.9 mb - 0.00 in0.0 mm 0.00 in0.0 mm
06:30 PM 52.5°F11.4°C 44.8°F7.1°C 75% 8.1 mph ESE13.0 kmh ESE 13.8 mph22.2 kmh 29.32 in992.9 mb - 0.00 in0.0 mm 0.00 in0.0 mm
06:25 PM 52.8°F11.6°C 44.7°F7.1°C 74% 10.4 mph ESE16.7 kmh ESE 12.7 mph20.4 kmh 29.32 in992.9 mb - 0.00 in0.0 mm 0.00 in0.0 mm
06:20 PM 53.0°F11.7°C 44.9°F7.2°C 74% 8.1 mph E13.0 kmh E 13.8 mph22.2 kmh 29.32 in992.9 mb - 0.00 in0.0 mm 0.00 in0.0 mm
06:15 PM 53.0°F11.7°C 45.0°F7.2°C 74% 5.8 mph ESE9.3 kmh ESE 9.2 mph14.8 kmh 29.32 in992.9 mb - 0.00 in0.0 mm 0.00 in0.0 mm
06:10 PM 53.2°F11.8°C 45.1°F7.3°C 74% 9.2 mph ESE14.8 kmh ESE 11.5 mph18.5 kmh 29.32 in992.9 mb - 0.00 in0.0 mm 0.00 in0.0 mm
06:05 PM 53.2°F11.8°C 45.1°F7.3°C 74% 5.8 mph ESE9.3 kmh ESE 10.4 mph16.7 kmh 29.32 in992.9 mb - 0.00 in0.0 mm 0.00 in0.0 mm
06:00 PM 53.5°F11.9°C 45.1°F7.3°C 73% 5.8 mph SE9.3 kmh SE 10.4 mph16.7 kmh 29.31 in992.6 mb - 0.00 in0.0 mm 0.00 in0.0 mm
05:55 PM 53.8°F12.1°C 45.3°F7.4°C 73% 6.9 mph E11.1 kmh E 9.2 mph14.8 kmh 29.31 in992.6 mb - 0.00 in0.0 mm 0.00 in0.0 mm
05:50 PM 53.9°F12.2°C 45.1°F7.3°C 72% 6.9 mph E11.1 kmh E 10.4 mph16.7 kmh 29.31 in992.6 mb - 0.00 in0.0 mm 0.00 in0.0 mm
05:45 PM 54.1°F12.3°C 45.3°F7.4°C 72% 6.9 mph ESE11.1 kmh ESE 11.5 mph18.5 kmh 29.31 in992.6 mb - 0.00 in0.0 mm 0.00 in0.0 mm
05:40 PM 54.3°F12.4°C 45.4°F7.4°C 72% 9.2 mph ESE14.8 kmh ESE 11.5 mph18.5 kmh 29.32 in992.9 mb - 0.00 in0.0 mm 0.00 in0.0 mm
05:35 PM 54.5°F12.5°C 45.7°F7.6°C 72% 5.8 mph SE9.3 kmh SE 11.5 mph18.5 kmh 29.32 in992.9 mb - 0.00 in0.0 mm 0.00 in0.0 mm
05:30 PM 54.6°F12.6°C 45.8°F7.7°C 72% 4.6 mph ESE7.4 kmh ESE 4.6 mph7.4 kmh 29.32 in992.9 mb - 0.00 in0.0 mm 0.00 in0.0 mm
05:25 PM 54.8°F12.7°C 46.0°F7.8°C 72% 5.8 mph ESE9.3 kmh ESE 10.4 mph16.7 kmh 29.31 in992.6 mb - 0.00 in0.0 mm 0.00 in0.0 mm
05:20 PM 55.0°F12.8°C 45.8°F7.7°C 71% 9.2 mph E14.8 kmh E 10.4 mph16.7 kmh 29.32 in992.9 mb - 0.00 in0.0 mm 0.00 in0.0 mm
05:15 PM 54.8°F12.7°C 45.9°F7.7°C 72% 5.8 mph NE9.3 kmh NE 11.5 mph18.5 kmh 29.31 in992.6 mb - 0.00 in0.0 mm 0.00 in0.0 mm
05:10 PM 54.4°F12.4°C 45.2°F7.3°C 71% 4.6 mph SE7.4 kmh SE 6.9 mph11.1 kmh 29.31 in992.6 mb - 0.00 in0.0 mm 0.00 in0.0 mm
05:05 PM 54.7°F12.6°C 45.5°F7.5°C 71% 12.7 mph ESE20.4 kmh ESE 19.6 mph31.5 kmh 29.31 in992.6 mb - 0.00 in0.0 mm 0.00 in0.0 mm
05:00 PM 54.7°F12.6°C 45.5°F7.5°C 71% 6.9 mph ESE11.1 kmh ESE 12.7 mph20.4 kmh 29.32 in992.9 mb - 0.00 in0.0 mm 0.00 in0.0 mm
04:55 PM 54.6°F12.6°C 45.4°F7.4°C 71% 8.1 mph E13.0 kmh E 12.7 mph20.4 kmh 29.32 in992.9 mb - 0.00 in0.0 mm 0.00 in0.0 mm
04:50 PM 54.7°F12.6°C 45.5°F7.5°C 71% 8.1 mph SE13.0 kmh SE 11.5 mph18.5 kmh 29.32 in992.9 mb - 0.00 in0.0 mm 0.00 in0.0 mm
04:45 PM 54.8°F12.7°C 45.5°F7.5°C 71% 6.9 mph E11.1 kmh E 11.5 mph18.5 kmh 29.32 in992.9 mb - 0.00 in0.0 mm 0.00 in0.0 mm
04:40 PM 54.5°F12.5°C 45.6°F7.6°C 72% 9.2 mph ESE14.8 kmh ESE 12.7 mph20.4 kmh 29.32 in992.9 mb - 0.00 in0.0 mm 0.00 in0.0 mm
04:35 PM 54.5°F12.5°C 45.7°F7.6°C 72% 6.9 mph ESE11.1 kmh ESE 10.4 mph16.7 kmh 29.32 in992.9 mb - 0.00 in0.0 mm 0.00 in0.0 mm
04:30 PM 54.5°F12.5°C 46.0°F7.8°C 73% 6.9 mph ESE11.1 kmh ESE 13.8 mph22.2 kmh 29.32 in992.9 mb - 0.00 in0.0 mm 0.00 in0.0 mm
04:25 PM 54.4°F12.4°C 45.6°F7.6°C 72% 8.1 mph E13.0 kmh E 13.8 mph22.2 kmh 29.32 in992.9 mb - 0.00 in0.0 mm 0.00 in0.0 mm
04:20 PM 54.3°F12.4°C 45.8°F7.7°C 73% 9.2 mph E14.8 kmh E 13.8 mph22.2 kmh 29.32 in992.9 mb - 0.00 in0.0 mm 0.00 in0.0 mm
04:15 PM 54.1°F12.3°C 45.6°F7.6°C 73% 8.1 mph ESE13.0 kmh ESE 11.5 mph18.5 kmh 29.33 in993.2 mb - 0.00 in0.0 mm 0.00 in0.0 mm
04:10 PM 54.1°F12.3°C 45.3°F7.4°C 72% 13.8 mph E22.2 kmh E 13.8 mph22.2 kmh 29.33 in993.2 mb - 0.00 in0.0 mm 0.00 in0.0 mm
04:05 PM 54.3°F12.4°C 45.1°F7.3°C 71% 13.8 mph ESE22.2 kmh ESE 23.0 mph37.0 kmh 29.33 in993.2 mb - 0.00 in0.0 mm 0.00 in0.0 mm
04:00 PM 54.6°F12.6°C 45.8°F7.7°C 72% 12.7 mph ESE20.4 kmh ESE 26.5 mph42.6 kmh 29.33 in993.2 mb - 0.00 in0.0 mm 0.00 in0.0 mm
03:55 PM 54.7°F12.6°C 45.8°F7.7°C 72% 11.5 mph ESE18.5 kmh ESE 21.9 mph35.2 kmh 29.33 in993.2 mb - 0.00 in0.0 mm 0.00 in0.0 mm
03:50 PM 55.1°F12.8°C 45.5°F7.5°C 70% 12.7 mph ESE20.4 kmh ESE 17.3 mph27.8 kmh 29.33 in993.2 mb - 0.00 in0.0 mm 0.00 in0.0 mm
03:45 PM 55.6°F13.1°C 45.6°F7.6°C 69% 12.7 mph SE20.4 kmh SE 15.0 mph24.1 kmh 29.33 in993.2 mb - 0.00 in0.0 mm 0.00 in0.0 mm
03:40 PM 56.0°F13.3°C 45.6°F7.6°C 68% 13.8 mph ESE22.2 kmh ESE 17.3 mph27.8 kmh 29.33 in993.2 mb - 0.00 in0.0 mm 0.00 in0.0 mm
03:35 PM 56.0°F13.3°C 45.9°F7.7°C 69% 9.2 mph E14.8 kmh E 12.7 mph20.4 kmh 29.34 in993.6 mb - 0.00 in0.0 mm 0.00 in0.0 mm
03:30 PM 56.0°F13.3°C 46.0°F7.8°C 69% 11.5 mph E18.5 kmh E 17.3 mph27.8 kmh 29.33 in993.2 mb - 0.00 in0.0 mm 0.00 in0.0 mm
03:25 PM 56.0°F13.3°C 46.0°F7.8°C 69% 12.7 mph E20.4 kmh E 15.0 mph24.1 kmh 29.33 in993.2 mb - 0.00 in0.0 mm 0.00 in0.0 mm
03:20 PM 56.3°F13.5°C 45.9°F7.7°C 68% 11.5 mph ESE18.5 kmh ESE 17.3 mph27.8 kmh 29.33 in993.2 mb - 0.00 in0.0 mm 0.00 in0.0 mm
03:15 PM 56.6°F13.7°C 46.2°F7.9°C 68% 11.5 mph ESE18.5 kmh ESE 16.1 mph25.9 kmh 29.33 in993.2 mb - 0.00 in0.0 mm 0.00 in0.0 mm
03:10 PM 57.5°F14.2°C 46.2°F7.9°C 66% 11.5 mph E18.5 kmh E 16.1 mph25.9 kmh 29.33 in993.2 mb - 0.00 in0.0 mm 0.00 in0.0 mm
03:05 PM 58.5°F14.7°C 46.8°F8.2°C 65% 12.7 mph E20.4 kmh E 16.1 mph25.9 kmh 29.33 in993.2 mb - 0.00 in0.0 mm 0.00 in0.0 mm
03:00 PM 58.9°F14.9°C 46.8°F8.2°C 64% 8.1 mph E13.0 kmh E 12.7 mph20.4 kmh 29.33 in993.2 mb - 0.00 in0.0 mm 0.00 in0.0 mm
02:55 PM 59.7°F15.4°C 47.1°F8.4°C 63% 10.4 mph ESE16.7 kmh ESE 15.0 mph24.1 kmh 29.33 in993.2 mb - 0.00 in0.0 mm 0.00 in0.0 mm
02:50 PM 59.9°F15.5°C 47.3°F8.5°C 63% 10.4 mph E16.7 kmh E 12.7 mph20.4 kmh 29.33 in993.2 mb - 0.00 in0.0 mm 0.00 in0.0 mm
02:45 PM 59.7°F15.4°C 47.1°F8.4°C 63% 11.5 mph E18.5 kmh E 19.6 mph31.5 kmh 29.33 in993.2 mb - 0.00 in0.0 mm 0.00 in0.0 mm
02:40 PM 59.8°F15.4°C 47.2°F8.4°C 63% 11.5 mph E18.5 kmh E 16.1 mph25.9 kmh 29.33 in993.2 mb - 0.00 in0.0 mm 0.00 in0.0 mm
02:35 PM 59.8°F15.4°C 47.2°F8.4°C 63% 10.4 mph E16.7 kmh E 17.3 mph27.8 kmh 29.33 in993.2 mb - 0.00 in0.0 mm 0.00 in0.0 mm
02:30 PM 60.0°F15.6°C 47.4°F8.6°C 63% 10.4 mph ESE16.7 kmh ESE 11.5 mph18.5 kmh 29.33 in993.2 mb - 0.00 in0.0 mm 0.00 in0.0 mm
02:25 PM 59.9°F15.5°C 47.3°F8.5°C 63% 8.1 mph ESE13.0 kmh ESE 12.7 mph20.4 kmh 29.33 in993.2 mb - 0.00 in0.0 mm 0.00 in0.0 mm
02:20 PM 60.3°F15.7°C 48.1°F8.9°C 64% 10.4 mph E16.7 kmh E 15.0 mph24.1 kmh 29.34 in993.6 mb - 0.00 in0.0 mm 0.00 in0.0 mm
02:15 PM 59.9°F15.5°C 48.1°F8.9°C 65% 10.4 mph E16.7 kmh E 15.0 mph24.1 kmh 29.34 in993.6 mb - 0.00 in0.0 mm 0.00 in0.0 mm
02:10 PM 59.5°F15.3°C 47.7°F8.7°C 65% 10.4 mph ESE16.7 kmh ESE 16.1 mph25.9 kmh 29.34 in993.6 mb - 0.00 in0.0 mm 0.00 in0.0 mm
02:05 PM 59.3°F15.2°C 47.5°F8.6°C 65% 11.5 mph E18.5 kmh E 19.6 mph31.5 kmh 29.34 in993.6 mb - 0.00 in0.0 mm 0.00 in0.0 mm
02:00 PM 59.1°F15.1°C 47.4°F8.6°C 65% 11.5 mph ESE18.5 kmh ESE 15.0 mph24.1 kmh 29.34 in993.6 mb - 0.00 in0.0 mm 0.00 in0.0 mm
01:55 PM 58.6°F14.8°C 47.3°F8.5°C 66% 13.8 mph E22.2 kmh E 18.4 mph29.6 kmh 29.34 in993.6 mb - 0.00 in0.0 mm 0.00 in0.0 mm
01:50 PM 58.1°F14.5°C 47.2°F8.4°C 67% 15.0 mph E24.1 kmh E 23.0 mph37.0 kmh 29.34 in993.6 mb - 0.00 in0.0 mm 0.00 in0.0 mm
01:45 PM 58.1°F14.5°C 46.8°F8.2°C 66% 17.3 mph E27.8 kmh E 24.2 mph38.9 kmh 29.34 in993.6 mb - 0.00 in0.0 mm 0.00 in0.0 mm
01:40 PM 58.3°F14.6°C 47.4°F8.6°C 67% 13.8 mph ESE22.2 kmh ESE 26.5 mph42.6 kmh 29.34 in993.6 mb - 0.00 in0.0 mm 0.00 in0.0 mm
01:35 PM 58.6°F14.8°C 47.6°F8.7°C 67% 18.4 mph ESE29.6 kmh ESE 24.2 mph38.9 kmh 29.34 in993.6 mb - 0.00 in0.0 mm 0.00 in0.0 mm
01:30 PM 58.7°F14.8°C 47.4°F8.6°C 66% 15.0 mph ESE24.1 kmh ESE 23.0 mph37.0 kmh 29.34 in993.6 mb - 0.00 in0.0 mm 0.00 in0.0 mm
01:25 PM 58.8°F14.9°C 47.5°F8.6°C 66% 16.1 mph ESE25.9 kmh ESE 25.3 mph40.7 kmh 29.34 in993.6 mb - 0.00 in0.0 mm 0.00 in0.0 mm
01:20 PM 58.6°F14.8°C 47.7°F8.7°C 67% 16.1 mph ESE25.9 kmh ESE 28.8 mph46.3 kmh 29.34 in993.6 mb - 0.00 in0.0 mm 0.00 in0.0 mm
01:15 PM 58.5°F14.7°C 48.4°F9.1°C 69% 13.8 mph ESE22.2 kmh ESE 24.2 mph38.9 kmh 29.34 in993.6 mb - 0.00 in0.0 mm 0.00 in0.0 mm
01:10 PM 58.5°F14.7°C 48.4°F9.1°C 69% 13.8 mph ESE22.2 kmh ESE 21.9 mph35.2 kmh 29.34 in993.6 mb - 0.00 in0.0 mm 0.00 in0.0 mm
01:05 PM 58.4°F14.7°C 48.3°F9.1°C 69% 11.5 mph ESE18.5 kmh ESE 19.6 mph31.5 kmh 29.34 in993.6 mb - 0.00 in0.0 mm 0.00 in0.0 mm
01:00 PM 58.4°F14.7°C 48.3°F9.1°C 69% 11.5 mph SE18.5 kmh SE 20.7 mph33.3 kmh 29.35 in993.9 mb - 0.00 in0.0 mm 0.00 in0.0 mm
12:55 PM 58.2°F14.6°C 48.1°F8.9°C 69% 10.4 mph E16.7 kmh E 19.6 mph31.5 kmh 29.35 in993.9 mb - 0.00 in0.0 mm 0.00 in0.0 mm
12:50 PM 58.3°F14.6°C 47.7°F8.7°C 68% 15.0 mph ESE24.1 kmh ESE 23.0 mph37.0 kmh 29.35 in993.9 mb - 0.00 in0.0 mm 0.00 in0.0 mm
12:45 PM 58.3°F14.6°C 47.8°F8.8°C 68% 11.5 mph ESE18.5 kmh ESE 18.4 mph29.6 kmh 29.34 in993.6 mb - 0.00 in0.0 mm 0.00 in0.0 mm
12:40 PM 58.2°F14.6°C 47.7°F8.7°C 68% 16.1 mph ESE25.9 kmh ESE 24.2 mph38.9 kmh 29.35 in993.9 mb - 0.00 in0.0 mm 0.00 in0.0 mm
12:35 PM 58.2°F14.6°C 48.1°F8.9°C 69% 15.0 mph ESE24.1 kmh ESE 19.6 mph31.5 kmh 29.35 in993.9 mb - 0.00 in0.0 mm 0.00 in0.0 mm
12:30 PM 58.0°F14.4°C 47.5°F8.6°C 68% 15.0 mph ESE24.1 kmh ESE 20.7 mph33.3 kmh 29.35 in993.9 mb - 0.00 in0.0 mm 0.00 in0.0 mm
12:25 PM 57.9°F14.4°C 47.7°F8.7°C 69% 13.8 mph E22.2 kmh E 21.9 mph35.2 kmh 29.35 in993.9 mb - 0.00 in0.0 mm 0.00 in0.0 mm
12:20 PM 57.8°F14.3°C 47.7°F8.7°C 69% 16.1 mph ESE25.9 kmh ESE 26.5 mph42.6 kmh 29.35 in993.9 mb - 0.00 in0.0 mm 0.00 in0.0 mm
12:15 PM 57.2°F14.0°C 47.5°F8.6°C 70% 15.0 mph ESE24.1 kmh ESE 19.6 mph31.5 kmh 29.35 in993.9 mb - 0.00 in0.0 mm 0.00 in0.0 mm
12:10 PM 56.9°F13.8°C 47.6°F8.7°C 71% 15.0 mph ESE24.1 kmh ESE 20.7 mph33.3 kmh 29.35 in993.9 mb - 0.00 in0.0 mm 0.00 in0.0 mm
12:05 PM 56.8°F13.8°C 47.5°F8.6°C 71% 13.8 mph ESE22.2 kmh ESE 19.6 mph31.5 kmh 29.35 in993.9 mb - 0.00 in0.0 mm 0.00 in0.0 mm
12:00 PM 56.8°F13.8°C 47.4°F8.6°C 71% 15.0 mph E24.1 kmh E 25.3 mph40.7 kmh 29.35 in993.9 mb - 0.00 in0.0 mm 0.00 in0.0 mm
11:55 AM 56.7°F13.7°C 47.4°F8.6°C 71% 16.1 mph ESE25.9 kmh ESE 26.5 mph42.6 kmh 29.35 in993.9 mb - 0.00 in0.0 mm 0.00 in0.0 mm
11:50 AM 56.8°F13.8°C 47.5°F8.6°C 71% 15.0 mph ESE24.1 kmh ESE 18.4 mph29.6 kmh 29.36 in994.2 mb - 0.00 in0.0 mm 0.00 in0.0 mm
11:45 AM 56.9°F13.8°C 47.2°F8.4°C 70% 16.1 mph ESE25.9 kmh ESE 18.4 mph29.6 kmh 29.35 in993.9 mb - 0.00 in0.0 mm 0.00 in0.0 mm
11:40 AM 56.7°F13.7°C 47.4°F8.6°C 71% 13.8 mph E22.2 kmh E 19.6 mph31.5 kmh 29.36 in994.2 mb - 0.00 in0.0 mm 0.00 in0.0 mm
11:35 AM 56.4°F13.6°C 47.1°F8.4°C 71% 15.0 mph E24.1 kmh E 19.6 mph31.5 kmh 29.36 in994.2 mb - 0.00 in0.0 mm 0.00 in0.0 mm
11:30 AM 56.4°F13.6°C 47.1°F8.4°C 71% 18.4 mph E29.6 kmh E 20.7 mph33.3 kmh 29.36 in994.2 mb - 0.00 in0.0 mm 0.00 in0.0 mm
11:25 AM 56.1°F13.4°C 46.8°F8.2°C 71% 16.1 mph E25.9 kmh E 20.7 mph33.3 kmh 29.35 in993.9 mb - 0.00 in0.0 mm 0.00 in0.0 mm
11:20 AM 55.9°F13.3°C 47.0°F8.3°C 72% 16.1 mph E25.9 kmh E 21.9 mph35.2 kmh 29.36 in994.2 mb - 0.00 in0.0 mm 0.00 in0.0 mm
11:15 AM 55.8°F13.2°C 46.9°F8.3°C 72% 15.0 mph E24.1 kmh E 20.7 mph33.3 kmh 29.36 in994.2 mb - 0.00 in0.0 mm 0.00 in0.0 mm
11:10 AM 55.8°F13.2°C 46.9°F8.3°C 72% 17.3 mph ESE27.8 kmh ESE 19.6 mph31.5 kmh 29.36 in994.2 mb - 0.00 in0.0 mm 0.00 in0.0 mm
11:05 AM 55.8°F13.2°C 46.9°F8.3°C 72% 17.3 mph E27.8 kmh E 25.3 mph40.7 kmh 29.36 in994.2 mb - 0.00 in0.0 mm 0.00 in0.0 mm
11:00 AM 55.7°F13.2°C 46.5°F8.1°C 71% 17.3 mph E27.8 kmh E 21.9 mph35.2 kmh 29.36 in994.2 mb - 0.00 in0.0 mm 0.00 in0.0 mm
10:55 AM 55.8°F13.2°C 46.9°F8.3°C 72% 16.1 mph ESE25.9 kmh ESE 20.7 mph33.3 kmh 29.37 in994.6 mb - 0.00 in0.0 mm 0.00 in0.0 mm
10:50 AM 55.8°F13.2°C 46.6°F8.1°C 71% 16.1 mph E25.9 kmh E 21.9 mph35.2 kmh 29.37 in994.6 mb - 0.00 in0.0 mm 0.00 in0.0 mm
10:45 AM 56.0°F13.3°C 46.7°F8.2°C 71% 17.3 mph ESE27.8 kmh ESE 24.2 mph38.9 kmh 29.37 in994.6 mb - 0.00 in0.0 mm 0.00 in0.0 mm
10:40 AM 55.4°F13.0°C 46.5°F8.1°C 72% 15.0 mph E24.1 kmh E 19.6 mph31.5 kmh 29.37 in994.6 mb - 0.00 in0.0 mm 0.00 in0.0 mm
10:35 AM 54.8°F12.7°C 46.3°F7.9°C 73% 17.3 mph E27.8 kmh E 25.3 mph40.7 kmh 29.37 in994.6 mb - 0.00 in0.0 mm 0.00 in0.0 mm
10:30 AM 54.6°F12.6°C 46.1°F7.8°C 73% 15.0 mph E24.1 kmh E 19.6 mph31.5 kmh 29.37 in994.6 mb - 0.00 in0.0 mm 0.00 in0.0 mm
10:25 AM 54.9°F12.7°C 46.4°F8.0°C 73% 15.0 mph ESE24.1 kmh ESE 20.7 mph33.3 kmh 29.38 in994.9 mb - 0.00 in0.0 mm 0.00 in0.0 mm
10:20 AM 54.6°F12.6°C 46.1°F7.8°C 73% 11.5 mph ESE18.5 kmh ESE 18.4 mph29.6 kmh 29.38 in994.9 mb - 0.00 in0.0 mm 0.00 in0.0 mm
10:15 AM 54.5°F12.5°C 46.0°F7.8°C 73% 12.7 mph ESE20.4 kmh ESE 19.6 mph31.5 kmh 29.38 in994.9 mb - 0.00 in0.0 mm 0.00 in0.0 mm
10:10 AM 54.6°F12.6°C 46.1°F7.8°C 73% 12.7 mph ESE20.4 kmh ESE 19.6 mph31.5 kmh 29.38 in994.9 mb - 0.00 in0.0 mm 0.00 in0.0 mm
10:05 AM 54.5°F12.5°C 45.7°F7.6°C 72% 16.1 mph E25.9 kmh E 18.4 mph29.6 kmh 29.39 in995.3 mb - 0.00 in0.0 mm 0.00 in0.0 mm
10:00 AM 54.5°F12.5°C 46.0°F7.8°C 73% 13.8 mph E22.2 kmh E 16.1 mph25.9 kmh 29.39 in995.3 mb - 0.00 in0.0 mm 0.00 in0.0 mm
09:55 AM 54.4°F12.4°C 45.9°F7.7°C 73% 15.0 mph E24.1 kmh E 28.8 mph46.3 kmh 29.39 in995.3 mb - 0.00 in0.0 mm 0.00 in0.0 mm
09:50 AM 54.3°F12.4°C 45.8°F7.7°C 73% 15.0 mph ESE24.1 kmh ESE 23.0 mph37.0 kmh 29.39 in995.3 mb - 0.00 in0.0 mm 0.00 in0.0 mm
09:45 AM 53.9°F12.2°C 45.8°F7.7°C 74% 13.8 mph E22.2 kmh E 19.6 mph31.5 kmh 29.39 in995.3 mb - 0.00 in0.0 mm 0.00 in0.0 mm
09:40 AM 53.7°F12.1°C 45.6°F7.6°C 74% 17.3 mph ESE27.8 kmh ESE 26.5 mph42.6 kmh 29.39 in995.3 mb - 0.00 in0.0 mm 0.00 in0.0 mm
09:35 AM 53.3°F11.8°C 45.6°F7.6°C 75% 12.7 mph ESE20.4 kmh ESE 18.4 mph29.6 kmh 29.39 in995.3 mb - 0.00 in0.0 mm 0.00 in0.0 mm
09:30 AM 52.9°F11.6°C 45.2°F7.3°C 75% 15.0 mph ESE24.1 kmh ESE 25.3 mph40.7 kmh 29.39 in995.3 mb - 0.00 in0.0 mm 0.00 in0.0 mm
09:25 AM 52.6°F11.4°C 44.9°F7.2°C 75% 12.7 mph E20.4 kmh E 18.4 mph29.6 kmh 29.39 in995.3 mb - 0.00 in0.0 mm 0.00 in0.0 mm
09:20 AM 52.4°F11.3°C 44.7°F7.1°C 75% 16.1 mph ESE25.9 kmh ESE 21.9 mph35.2 kmh 29.39 in995.3 mb - 0.00 in0.0 mm 0.00 in0.0 mm
09:15 AM 52.3°F11.3°C 44.9°F7.2°C 76% 12.7 mph ESE20.4 kmh ESE 19.6 mph31.5 kmh 29.39 in995.3 mb - 0.00 in0.0 mm 0.00 in0.0 mm
09:10 AM 51.9°F11.1°C 44.6°F7.0°C 76% 13.8 mph ESE22.2 kmh ESE 19.6 mph31.5 kmh 29.39 in995.3 mb - 0.00 in0.0 mm 0.00 in0.0 mm
09:05 AM 51.7°F10.9°C 44.4°F6.9°C 76% 13.8 mph ESE22.2 kmh ESE 19.6 mph31.5 kmh 29.39 in995.3 mb - 0.00 in0.0 mm 0.00 in0.0 mm
09:00 AM 51.3°F10.7°C 44.0°F6.7°C 76% 11.5 mph ESE18.5 kmh ESE 19.6 mph31.5 kmh 29.39 in995.3 mb - 0.00 in0.0 mm 0.00 in0.0 mm
08:55 AM 51.0°F10.6°C 44.0°F6.7°C 77% 13.8 mph ESE22.2 kmh ESE 21.9 mph35.2 kmh 29.39 in995.3 mb - 0.00 in0.0 mm 0.00 in0.0 mm
08:50 AM 50.8°F10.4°C 43.9°F6.6°C 77% 17.3 mph ESE27.8 kmh ESE 24.2 mph38.9 kmh 29.39 in995.3 mb - 0.00 in0.0 mm 0.00 in0.0 mm
08:45 AM 50.6°F10.3°C 43.6°F6.4°C 77% 13.8 mph ESE22.2 kmh ESE 28.8 mph46.3 kmh 29.39 in995.3 mb - 0.00 in0.0 mm 0.00 in0.0 mm
08:40 AM 50.3°F10.2°C 43.3°F6.3°C 77% 11.5 mph ESE18.5 kmh ESE 17.3 mph27.8 kmh 29.39 in995.3 mb - 0.00 in0.0 mm 0.00 in0.0 mm
08:35 AM 50.1°F10.1°C 43.2°F6.2°C 77% 16.1 mph E25.9 kmh E 19.6 mph31.5 kmh 29.40 in995.6 mb - 0.00 in0.0 mm 0.00 in0.0 mm
08:30 AM 50.1°F10.1°C 43.1°F6.2°C 77% 13.8 mph ESE22.2 kmh ESE 19.6 mph31.5 kmh 29.40 in995.6 mb - 0.00 in0.0 mm 0.00 in0.0 mm
08:25 AM 49.9°F9.9°C 43.0°F6.1°C 77% 11.5 mph ESE18.5 kmh ESE 19.6 mph31.5 kmh 29.40 in995.6 mb - 0.00 in0.0 mm 0.00 in0.0 mm
08:20 AM 49.9°F9.9°C 42.9°F6.1°C 77% 13.8 mph E22.2 kmh E 17.3 mph27.8 kmh 29.41 in995.9 mb - 0.00 in0.0 mm 0.00 in0.0 mm
08:15 AM 49.8°F9.9°C 42.9°F6.1°C 77% 13.8 mph ESE22.2 kmh ESE 24.2 mph38.9 kmh 29.40 in995.6 mb - 0.00 in0.0 mm 0.00 in0.0 mm
08:10 AM 49.8°F9.9°C 42.9°F6.1°C 77% 13.8 mph E22.2 kmh E 26.5 mph42.6 kmh 29.41 in995.9 mb - 0.00 in0.0 mm 0.00 in0.0 mm
08:05 AM 50.0°F10.0°C 43.1°F6.2°C 77% 16.1 mph E25.9 kmh E 26.5 mph42.6 kmh 29.40 in995.6 mb - 0.00 in0.0 mm 0.00 in0.0 mm
08:00 AM 50.2°F10.1°C 43.3°F6.3°C 77% 15.0 mph ESE24.1 kmh ESE 21.9 mph35.2 kmh 29.40 in995.6 mb - 0.00 in0.0 mm 0.00 in0.0 mm
07:55 AM 50.4°F10.2°C 43.1°F6.2°C 76% 11.5 mph ESE18.5 kmh ESE 18.4 mph29.6 kmh 29.40 in995.6 mb - 0.00 in0.0 mm 0.00 in0.0 mm
07:50 AM 50.5°F10.3°C 43.2°F6.2°C 76% 9.2 mph E14.8 kmh E 11.5 mph18.5 kmh 29.40 in995.6 mb - 0.00 in0.0 mm 0.00 in0.0 mm
07:45 AM 50.4°F10.2°C 43.1°F6.2°C 76% 13.8 mph E22.2 kmh E 23.0 mph37.0 kmh 29.40 in995.6 mb - 0.00 in0.0 mm 0.00 in0.0 mm
07:40 AM 50.0°F10.0°C 43.1°F6.2°C 77% 12.7 mph E20.4 kmh E 17.3 mph27.8 kmh 29.40 in995.6 mb - 0.00 in0.0 mm 0.00 in0.0 mm
07:35 AM 49.7°F9.8°C 42.8°F6.0°C 77% 11.5 mph E18.5 kmh E 18.4 mph29.6 kmh 29.41 in995.9 mb - 0.00 in0.0 mm 0.00 in0.0 mm
07:30 AM 49.7°F9.8°C 42.8°F6.0°C 77% 13.8 mph E22.2 kmh E 19.6 mph31.5 kmh 29.41 in995.9 mb - 0.00 in0.0 mm 0.00 in0.0 mm
07:25 AM 49.5°F9.7°C 42.9°F6.1°C 78% 10.4 mph E16.7 kmh E 15.0 mph24.1 kmh 29.41 in995.9 mb - 0.00 in0.0 mm 0.00 in0.0 mm
07:20 AM 49.4°F9.7°C 42.8°F6.0°C 78% 13.8 mph E22.2 kmh E 19.6 mph31.5 kmh 29.41 in995.9 mb - 0.00 in0.0 mm 0.00 in0.0 mm
07:15 AM 49.3°F9.6°C 42.7°F5.9°C 78% 10.4 mph ESE16.7 kmh ESE 16.1 mph25.9 kmh 29.42 in996.3 mb - 0.00 in0.0 mm 0.00 in0.0 mm
07:10 AM 49.2°F9.6°C 42.3°F5.7°C 77% 11.5 mph ESE18.5 kmh ESE 19.6 mph31.5 kmh 29.42 in996.3 mb - 0.00 in0.0 mm 0.00 in0.0 mm
07:05 AM 49.1°F9.5°C 42.2°F5.7°C 77% 16.1 mph E25.9 kmh E 23.0 mph37.0 kmh 29.42 in996.3 mb - 0.00 in0.0 mm 0.00 in0.0 mm
07:00 AM 49.0°F9.4°C 42.4°F5.8°C 78% 15.0 mph ESE24.1 kmh ESE 19.6 mph31.5 kmh 29.43 in996.6 mb - 0.00 in0.0 mm 0.00 in0.0 mm
06:55 AM 49.0°F9.4°C 42.4°F5.8°C 78% 12.7 mph E20.4 kmh E 18.4 mph29.6 kmh 29.43 in996.6 mb - 0.00 in0.0 mm 0.00 in0.0 mm
06:50 AM 48.9°F9.4°C 42.0°F5.6°C 77% 8.1 mph E13.0 kmh E 15.0 mph24.1 kmh 29.43 in996.6 mb - 0.00 in0.0 mm 0.00 in0.0 mm
06:45 AM 48.7°F9.3°C 42.1°F5.6°C 78% 11.5 mph E18.5 kmh E 16.1 mph25.9 kmh 29.43 in996.6 mb - 0.00 in0.0 mm 0.00 in0.0 mm
06:40 AM 48.3°F9.1°C 41.8°F5.4°C 78% 8.1 mph E13.0 kmh E 13.8 mph22.2 kmh 29.43 in996.6 mb - 0.00 in0.0 mm 0.00 in0.0 mm
06:35 AM 48.1°F8.9°C 41.6°F5.3°C 78% 9.2 mph ESE14.8 kmh ESE 18.4 mph29.6 kmh 29.43 in996.6 mb - 0.00 in0.0 mm 0.00 in0.0 mm
06:30 AM 47.7°F8.7°C 41.2°F5.1°C 78% 1.2 mph NE1.9 kmh NE 9.2 mph14.8 kmh 29.43 in996.6 mb - 0.00 in0.0 mm 0.00 in0.0 mm
06:25 AM 47.5°F8.6°C 41.0°F5.0°C 78% 3.5 mph WSW5.6 kmh WSW 5.8 mph9.3 kmh 29.43 in996.6 mb - 0.00 in0.0 mm 0.00 in0.0 mm
06:20 AM 47.4°F8.6°C 40.9°F4.9°C 78% 3.5 mph SSW5.6 kmh SSW 4.6 mph7.4 kmh 29.43 in996.6 mb - 0.00 in0.0 mm 0.00 in0.0 mm
06:15 AM 47.2°F8.4°C 40.7°F4.8°C 78% 3.5 mph SSW5.6 kmh SSW 8.1 mph13.0 kmh 29.43 in996.6 mb - 0.00 in0.0 mm 0.00 in0.0 mm
06:10 AM 47.0°F8.3°C 40.5°F4.7°C 78% 4.6 mph WSW7.4 kmh WSW 8.1 mph13.0 kmh 29.43 in996.6 mb - 0.00 in0.0 mm 0.00 in0.0 mm
06:05 AM 47.0°F8.3°C 40.5°F4.7°C 78% 4.6 mph SW7.4 kmh SW 6.9 mph11.1 kmh 29.43 in996.6 mb - 0.00 in0.0 mm 0.00 in0.0 mm
06:00 AM 46.9°F8.3°C 40.4°F4.7°C 78% 3.5 mph W5.6 kmh W 5.8 mph9.3 kmh 29.44 in997.0 mb - 0.00 in0.0 mm 0.00 in0.0 mm
05:55 AM 46.9°F8.3°C 40.4°F4.7°C 78% 5.8 mph W9.3 kmh W 8.1 mph13.0 kmh 29.44 in997.0 mb - 0.00 in0.0 mm 0.00 in0.0 mm
05:50 AM 46.8°F8.2°C 40.3°F4.6°C 78% 5.8 mph SW9.3 kmh SW 5.8 mph9.3 kmh 29.44 in997.0 mb - 0.00 in0.0 mm 0.00 in0.0 mm
05:45 AM 46.7°F8.2°C 40.2°F4.6°C 78% 2.3 mph NW3.7 kmh NW 3.5 mph5.6 kmh 29.44 in997.0 mb - 0.00 in0.0 mm 0.00 in0.0 mm
05:40 AM 46.7°F8.2°C 40.2°F4.6°C 78% 2.3 mph SE3.7 kmh SE 3.5 mph5.6 kmh 29.44 in997.0 mb - 0.00 in0.0 mm 0.00 in0.0 mm
05:35 AM 46.9°F8.3°C 40.4°F4.7°C 78% 3.5 mph E5.6 kmh E 5.8 mph9.3 kmh 29.44 in997.0 mb - 0.00 in0.0 mm 0.00 in0.0 mm
05:30 AM 46.8°F8.2°C 40.3°F4.6°C 78% 5.8 mph ESE9.3 kmh ESE 11.5 mph18.5 kmh 29.44 in997.0 mb - 0.00 in0.0 mm 0.00 in0.0 mm
05:25 AM 46.7°F8.2°C 40.2°F4.6°C 78% 8.1 mph E13.0 kmh E 11.5 mph18.5 kmh 29.45 in997.3 mb - 0.00 in0.0 mm 0.00 in0.0 mm
05:20 AM 46.6°F8.1°C 40.1°F4.5°C 78% 6.9 mph NE11.1 kmh NE 10.4 mph16.7 kmh 29.45 in997.3 mb - 0.00 in0.0 mm 0.00 in0.0 mm
05:15 AM 46.5°F8.1°C 40.0°F4.4°C 78% 4.6 mph E7.4 kmh E 9.2 mph14.8 kmh 29.45 in997.3 mb - 0.00 in0.0 mm 0.00 in0.0 mm
05:10 AM 46.4°F8.0°C 39.9°F4.4°C 78% 3.5 mph S5.6 kmh S 4.6 mph7.4 kmh 29.45 in997.3 mb - 0.00 in0.0 mm 0.00 in0.0 mm
05:05 AM 46.1°F7.8°C 39.6°F4.2°C 78% 5.8 mph SE9.3 kmh SE 10.4 mph16.7 kmh 29.45 in997.3 mb - 0.00 in0.0 mm 0.00 in0.0 mm
05:00 AM 46.0°F7.8°C 39.5°F4.2°C 78% 4.6 mph SSW7.4 kmh SSW 4.6 mph7.4 kmh 29.45 in997.3 mb - 0.00 in0.0 mm 0.00 in0.0 mm
04:55 AM 45.9°F7.7°C 39.4°F4.1°C 78% 5.8 mph W9.3 kmh W 10.4 mph16.7 kmh 29.45 in997.3 mb - 0.00 in0.0 mm 0.00 in0.0 mm
04:50 AM 45.8°F7.7°C 39.3°F4.1°C 78% 2.3 mph W3.7 kmh W 3.5 mph5.6 kmh 29.45 in997.3 mb - 0.00 in0.0 mm 0.00 in0.0 mm
04:45 AM 45.3°F7.4°C 38.8°F3.8°C 78% 2.3 mph N3.7 kmh N 3.5 mph5.6 kmh 29.45 in997.3 mb - 0.00 in0.0 mm 0.00 in0.0 mm
04:40 AM 45.1°F7.3°C 38.6°F3.7°C 78% 3.5 mph SW5.6 kmh SW 8.1 mph13.0 kmh 29.45 in997.3 mb - 0.00 in0.0 mm 0.00 in0.0 mm
04:35 AM 45.2°F7.3°C 38.7°F3.7°C 78% 1.2 mph NE1.9 kmh NE 2.3 mph3.7 kmh 29.45 in997.3 mb - 0.00 in0.0 mm 0.00 in0.0 mm
04:30 AM 44.9°F7.2°C 38.5°F3.6°C 78% 2.3 mph NW3.7 kmh NW 2.3 mph3.7 kmh 29.45 in997.3 mb - 0.00 in0.0 mm 0.00 in0.0 mm
04:25 AM 44.9°F7.2°C 38.5°F3.6°C 78% 3.5 mph WSW5.6 kmh WSW 3.5 mph5.6 kmh 29.46 in997.6 mb - 0.00 in0.0 mm 0.00 in0.0 mm
04:20 AM 44.9°F7.2°C 38.5°F3.6°C 78% 3.5 mph WSW5.6 kmh WSW 3.5 mph5.6 kmh 29.46 in997.6 mb - 0.00 in0.0 mm 0.00 in0.0 mm
04:15 AM 44.9°F7.2°C 38.5°F3.6°C 78% 2.3 mph W3.7 kmh W 6.9 mph11.1 kmh 29.46 in997.6 mb - 0.00 in0.0 mm 0.00 in0.0 mm
04:10 AM 44.7°F7.1°C 38.3°F3.5°C 78% 4.6 mph W7.4 kmh W 6.9 mph11.1 kmh 29.46 in997.6 mb - 0.00 in0.0 mm 0.00 in0.0 mm
04:05 AM 44.5°F6.9°C 38.1°F3.4°C 78% 2.3 mph WSW3.7 kmh WSW 3.5 mph5.6 kmh 29.46 in997.6 mb - 0.00 in0.0 mm 0.00 in0.0 mm
04:00 AM 44.2°F6.8°C 37.8°F3.2°C 78% 2.3 mph WSW3.7 kmh WSW 3.5 mph5.6 kmh 29.46 in997.6 mb - 0.00 in0.0 mm 0.00 in0.0 mm
03:55 AM 44.2°F6.8°C 37.8°F3.2°C 78% Calm Calm 1.2 mph1.9 kmh 29.46 in997.6 mb - 0.00 in0.0 mm 0.00 in0.0 mm
03:50 AM 44.4°F6.9°C 38.0°F3.3°C 78% 3.5 mph SW5.6 kmh SW 3.5 mph5.6 kmh 29.46 in997.6 mb - 0.00 in0.0 mm 0.00 in0.0 mm
03:45 AM 44.4°F6.9°C 38.0°F3.3°C 78% 2.3 mph W3.7 kmh W 3.5 mph5.6 kmh 29.46 in997.6 mb - 0.00 in0.0 mm 0.00 in0.0 mm
03:40 AM 44.5°F6.9°C 38.1°F3.4°C 78% 1.2 mph W1.9 kmh W 3.5 mph5.6 kmh 29.46 in997.6 mb - 0.00 in0.0 mm 0.00 in0.0 mm
03:35 AM 44.7°F7.1°C 38.3°F3.5°C 78% 2.3 mph W3.7 kmh W 5.8 mph9.3 kmh 29.46 in997.6 mb - 0.00 in0.0 mm 0.00 in0.0 mm
03:30 AM 44.8°F7.1°C 38.7°F3.7°C 79% Calm Calm 3.5 mph5.6 kmh 29.46 in997.6 mb - 0.00 in0.0 mm 0.00 in0.0 mm
03:25 AM 44.9°F7.2°C 38.8°F3.8°C 79% 2.3 mph W3.7 kmh W 3.5 mph5.6 kmh 29.47 in998.0 mb - 0.00 in0.0 mm 0.00 in0.0 mm
03:20 AM 45.2°F7.3°C 38.7°F3.7°C 78% 3.5 mph WSW5.6 kmh WSW 3.5 mph5.6 kmh 29.47 in998.0 mb - 0.00 in0.0 mm 0.00 in0.0 mm
03:15 AM 45.4°F7.4°C 39.0°F3.9°C 78% 4.6 mph WSW7.4 kmh WSW 9.2 mph14.8 kmh 29.47 in998.0 mb - 0.00 in0.0 mm 0.00 in0.0 mm
03:10 AM 45.7°F7.6°C 39.2°F4.0°C 78% 1.2 mph WNW1.9 kmh WNW 3.5 mph5.6 kmh 29.47 in998.0 mb - 0.00 in0.0 mm 0.00 in0.0 mm
03:05 AM 45.9°F7.7°C 39.4°F4.1°C 78% 1.2 mph NW1.9 kmh NW 1.2 mph1.9 kmh 29.47 in998.0 mb - 0.00 in0.0 mm 0.00 in0.0 mm
03:00 AM 46.1°F7.8°C 39.6°F4.2°C 78% 2.3 mph NW3.7 kmh NW 3.5 mph5.6 kmh 29.47 in998.0 mb - 0.00 in0.0 mm 0.00 in0.0 mm
02:55 AM 46.1°F7.8°C 39.6°F4.2°C 78% 2.3 mph NNW3.7 kmh NNW 4.6 mph7.4 kmh 29.48 in998.3 mb - 0.00 in0.0 mm 0.00 in0.0 mm
02:50 AM 45.9°F7.7°C 39.4°F4.1°C 78% 2.3 mph E3.7 kmh E 4.6 mph7.4 kmh 29.48 in998.3 mb - 0.00 in0.0 mm 0.00 in0.0 mm
02:45 AM 45.7°F7.6°C 39.2°F4.0°C 78% 3.5 mph ESE5.6 kmh ESE 5.8 mph9.3 kmh 29.48 in998.3 mb - 0.00 in0.0 mm 0.00 in0.0 mm
02:40 AM 45.6°F7.6°C 39.1°F3.9°C 78% 3.5 mph WSW5.6 kmh WSW 6.9 mph11.1 kmh 29.48 in998.3 mb - 0.00 in0.0 mm 0.00 in0.0 mm
02:35 AM 45.5°F7.5°C 39.0°F3.9°C 78% 3.5 mph W5.6 kmh W 6.9 mph11.1 kmh 29.48 in998.3 mb - 0.00 in0.0 mm 0.00 in0.0 mm
02:30 AM 45.3°F7.4°C 38.8°F3.8°C 78% 3.5 mph WSW5.6 kmh WSW 3.5 mph5.6 kmh 29.48 in998.3 mb - 0.00 in0.0 mm 0.00 in0.0 mm
02:25 AM 44.5°F6.9°C 38.1°F3.4°C 78% 3.5 mph SW5.6 kmh SW 4.6 mph7.4 kmh 29.48 in998.3 mb - 0.00 in0.0 mm 0.00 in0.0 mm
02:20 AM 44.5°F6.9°C 38.1°F3.4°C 78% 2.3 mph W3.7 kmh W 3.5 mph5.6 kmh 29.48 in998.3 mb - 0.00 in0.0 mm 0.00 in0.0 mm
02:15 AM 44.5°F6.9°C 38.1°F3.4°C 78% 1.2 mph W1.9 kmh W 3.5 mph5.6 kmh 29.48 in998.3 mb - 0.00 in0.0 mm 0.00 in0.0 mm
02:10 AM 44.6°F7.0°C 38.2°F3.4°C 78% 2.3 mph W3.7 kmh W 3.5 mph5.6 kmh 29.48 in998.3 mb - 0.00 in0.0 mm 0.00 in0.0 mm
02:05 AM 44.7°F7.1°C 38.3°F3.5°C 78% Calm Calm 2.3 mph3.7 kmh 29.49 in998.6 mb - 0.00 in0.0 mm 0.00 in0.0 mm
02:00 AM 44.8°F7.1°C 38.4°F3.6°C 78% 1.2 mph W1.9 kmh W 3.5 mph5.6 kmh 29.49 in998.6 mb - 0.00 in0.0 mm 0.00 in0.0 mm
01:55 AM 44.7°F7.1°C 38.3°F3.5°C 78% 1.2 mph W1.9 kmh W 2.3 mph3.7 kmh 29.49 in998.6 mb - 0.00 in0.0 mm 0.00 in0.0 mm
01:50 AM 44.8°F7.1°C 38.4°F3.6°C 78% Calm Calm -- 29.49 in998.6 mb - 0.00 in0.0 mm 0.00 in0.0 mm
01:45 AM 44.9°F7.2°C 38.5°F3.6°C 78% 2.3 mph W3.7 kmh W 3.5 mph5.6 kmh 29.50 in999.0 mb - 0.00 in0.0 mm 0.00 in0.0 mm
01:40 AM 45.0°F7.2°C 38.6°F3.7°C 78% 2.3 mph WSW3.7 kmh WSW 5.8 mph9.3 kmh 29.50 in999.0 mb - 0.00 in0.0 mm 0.00 in0.0 mm
01:35 AM 45.1°F7.3°C 38.6°F3.7°C 78% 2.3 mph W3.7 kmh W 3.5 mph5.6 kmh 29.50 in999.0 mb - 0.00 in0.0 mm 0.00 in0.0 mm
01:30 AM 45.3°F7.4°C 38.8°F3.8°C 78% 3.5 mph W5.6 kmh W 3.5 mph5.6 kmh 29.50 in999.0 mb - 0.00 in0.0 mm 0.00 in0.0 mm
01:25 AM 45.6°F7.6°C 39.1°F3.9°C 78% 4.6 mph W7.4 kmh W 6.9 mph11.1 kmh 29.50 in999.0 mb - 0.00 in0.0 mm 0.00 in0.0 mm
01:20 AM 45.7°F7.6°C 39.2°F4.0°C 78% 4.6 mph W7.4 kmh W 9.2 mph14.8 kmh 29.50 in999.0 mb - 0.00 in0.0 mm 0.00 in0.0 mm
01:15 AM 45.8°F7.7°C 39.3°F4.1°C 78% 5.8 mph WSW9.3 kmh WSW 9.2 mph14.8 kmh 29.50 in999.0 mb - 0.00 in0.0 mm 0.00 in0.0 mm
01:10 AM 45.8°F7.7°C 39.3°F4.1°C 78% 4.6 mph WSW7.4 kmh WSW 8.1 mph13.0 kmh 29.50 in999.0 mb - 0.00 in0.0 mm 0.00 in0.0 mm
01:05 AM 46.1°F7.8°C 39.6°F4.2°C 78% 5.8 mph WSW9.3 kmh WSW 6.9 mph11.1 kmh 29.50 in999.0 mb - 0.00 in0.0 mm 0.00 in0.0 mm
01:00 AM 46.4°F8.0°C 39.9°F4.4°C 78% 5.8 mph WSW9.3 kmh WSW 9.2 mph14.8 kmh 29.50 in999.0 mb - 0.00 in0.0 mm 0.00 in0.0 mm
12:55 AM 46.6°F8.1°C 40.1°F4.5°C 78% 5.8 mph WSW9.3 kmh WSW 9.2 mph14.8 kmh 29.50 in999.0 mb - 0.00 in0.0 mm 0.00 in0.0 mm
12:50 AM 46.8°F8.2°C 40.3°F4.6°C 78% 4.6 mph WSW7.4 kmh WSW 8.1 mph13.0 kmh 29.50 in999.0 mb - 0.00 in0.0 mm 0.00 in0.0 mm
12:45 AM 46.9°F8.3°C 40.4°F4.7°C 78% 5.8 mph SW9.3 kmh SW 6.9 mph11.1 kmh 29.50 in999.0 mb - 0.00 in0.0 mm 0.00 in0.0 mm
12:40 AM 47.2°F8.4°C 40.7°F4.8°C 78% 6.9 mph WSW11.1 kmh WSW 11.5 mph18.5 kmh 29.50 in999.0 mb - 0.00 in0.0 mm 0.00 in0.0 mm
12:35 AM 47.6°F8.7°C 40.7°F4.8°C 77% 4.6 mph SSW7.4 kmh SSW 4.6 mph7.4 kmh 29.50 in999.0 mb - 0.00 in0.0 mm 0.00 in0.0 mm
12:30 AM 47.6°F8.7°C 41.1°F5.1°C 78% 3.5 mph S5.6 kmh S 6.9 mph11.1 kmh 29.50 in999.0 mb - 0.00 in0.0 mm 0.00 in0.0 mm
12:25 AM 47.3°F8.5°C 40.8°F4.9°C 78% 5.8 mph S9.3 kmh S 8.1 mph13.0 kmh 29.50 in999.0 mb - 0.00 in0.0 mm 0.00 in0.0 mm
12:20 AM 47.5°F8.6°C 40.7°F4.8°C 77% 4.6 mph SW7.4 kmh SW 5.8 mph9.3 kmh 29.50 in999.0 mb - 0.00 in0.0 mm 0.00 in0.0 mm
12:15 AM 48.0°F8.9°C 41.1°F5.1°C 77% 4.6 mph SW7.4 kmh SW 8.1 mph13.0 kmh 29.50 in999.0 mb - 0.00 in0.0 mm 0.00 in0.0 mm
12:10 AM 48.3°F9.1°C 41.1°F5.1°C 76% 4.6 mph SW7.4 kmh SW 9.2 mph14.8 kmh 29.50 in999.0 mb - 0.00 in0.0 mm 0.00 in0.0 mm
12:05 AM 48.5°F9.2°C 41.3°F5.2°C 76% 3.5 mph WSW5.6 kmh WSW 3.5 mph5.6 kmh 29.50 in999.0 mb - 0.00 in0.0 mm 0.00 in0.0 mm
12:00 AM 49.0°F9.4°C 41.4°F5.2°C 75% Calm Calm 1.2 mph1.9 kmh 29.50 in999.0 mb - 0.00 in0.0 mm 0.00 in0.0 mm